Nearby METAR Reports


KSYR - Syracuse, New York, USA
Distance from station: SE 5mi, 8km
Updated: Thu, 19-Jul-2018 10:54am EDT
Few Clouds
Few Clouds
 Wind from calm
Wind: Calm
Temperature: 73°F , 23°C
Dew Point: 50°F , 10°C
Humidity: 44%
Barometer: 30.12 inHg , 1020 hPa
Clouds: Few Clouds
Visibility: 10 miles , 16 km
Cloud details: Few Clouds 25000 ft
2018/07/19 14:54 KSYR 191454Z 00000KT 10SM FEW250 23/10 A3012 RMK AO2 SLP195 T02330100 58001
KFZY - Fulton, New York, USA
Distance from station: NW 17mi, 27km
Updated: Thu, 19-Jul-2018 10:54am EDT
Clear
Clear
 Wind from S
Wind: S 6 mph , 9 km/h
Temperature: 73°F , 23°C
Dew Point: 46°F , 8°C
Humidity: 38%
Barometer: 30.13 inHg , 1020.3 hPa
Clouds: Clear
Visibility: 10 miles , 16 km
2018/07/19 14:54 KFZY 191454Z AUTO 19005KT 10SM CLR 23/08 A3013 RMK AO2 SLP202 T02330083 58002
 
KRME - Rome/Griffiss Af, New York, USA
Distance from station: E 39mi, 62km
Updated: Thu, 19-Jul-2018 10:53am EDT
Clear
Clear
 Wind from varies
Wind: varies 5 mph , 7 km/h
Temperature: 72°F , 22°C
Dew Point: 52°F , 11°C
Humidity: 50%
Barometer: 30.15 inHg , 1021 hPa
Clouds: Clear
Visibility: 10 miles , 16 km
2018/07/19 14:53 KRME 191453Z VRB04KT 10SM CLR 22/11 A3015 RMK AO2 SLP206 T02220111 58001
KITH - Ithaca/Tompkins, New York, USA
Distance from station: SSW 51mi, 82km
Updated: Thu, 19-Jul-2018 10:56am EDT
Clear
Clear
 Wind from calm
Wind: Calm
Temperature: 72°F , 22°C
Dew Point: 50°F , 10°C
Humidity: 47%
Barometer: 30.16 inHg , 1021.3 hPa
Clouds: Clear
Visibility: 10 miles , 16 km
2018/07/19 14:56 KITH 191456Z 00000KT 10SM CLR 22/10 A3016 RMK AO2 SLP210 T02170100 50001
 
KART - Watertown, New York, USA
Distance from station: N 56mi, 91km
Updated: Thu, 19-Jul-2018 10:56am EDT
Clear
Clear
 Wind from SW
Wind: SW 8 mph , 13 km/h
Temperature: 73°F , 23°C
Dew Point: 57°F , 14°C
Humidity: 57%
Barometer: 30.12 inHg , 1020 hPa
Clouds: Clear
Visibility: 10 miles , 16 km
2018/07/19 14:56 KART 191456Z AUTO 23007KT 10SM CLR 23/14 A3012 RMK AO2 SLP194 T02330144 50005
KPEO - Penn Yan, New York, USA
Distance from station: SW 58mi, 93km
Updated: Thu, 19-Jul-2018 10:53am EDT
Clear
Clear
 Wind from S
Wind: S 3 mph , 6 km/h
Temperature: 72°F , 22°C
Dew Point: 48°F , 9°C
Humidity: 44%
Barometer: 30.14 inHg , 1020.7 hPa
Clouds: Clear
Visibility: 10 miles , 16 km
2018/07/19 14:53 KPEO 191453Z AUTO 17003KT 10SM CLR 22/09 A3014 RMK AO2 SLP205 T02220089 50000
 
KGTB - Fort Drum/Wheele, New York, USA
Distance from station: NNE 64mi, 102km
Updated: Thu, 19-Jul-2018 10:56am EDT
Clear
Clear
 Wind from W
Wind: W 6 mph , 9 km/h
Temperature: 73°F , 23°C
Dew Point: 54°F , 12°C
Humidity: 50%
Barometer: 30.11 inHg , 1019.6 hPa
Clouds: Clear
Visibility: 10 miles , 16 km
2018/07/19 14:56 KGTB 191456Z AUTO 28005KT 10SM CLR 23/12 A3011 RMK AO2 SLP195 T02330117 50004
CWQP - Point Petre (mar, Ontario, Canada
Distance from station: NW 67mi, 107km
Updated: Thu, 19-Jul-2018 11:00am EDT

 Wind from SSW
Wind: SSW 6 mph , 9 km/h
Temperature: 72°F , 22°C
Dew Point: 61°F , 16°C
Humidity: 69%
2018/07/19 15:00 CWQP 191500Z AUTO 20005KT 22/16 RMK AO1 SLP197 T02240157 51006
 
KBGM - Binghamton, New York, USA
Distance from station: S 67mi, 107km
Updated: Thu, 19-Jul-2018 10:53am EDT
Clear
Clear
 Wind from varies
Wind: varies 5 mph , 7 km/h
Temperature: 66°F , 19°C
Dew Point: 46°F , 8°C
Humidity: 49%
Barometer: 30.16 inHg , 1021.3 hPa
Clouds: Clear
Visibility: 10 miles , 16 km
2018/07/19 14:53 KBGM 191453Z VRB04KT 10SM CLR 19/08 A3016 RMK AO2 SLP208 T01940083 51008
CYGK - Kingston Arpt (m, Ontario, Canada
Distance from station: NNW 75mi, 121km
Updated: Thu, 19-Jul-2018 11:00am EDT
Partly cloudy
Partly cloudy
 Wind from S
Wind: S 12 mph , 19 km/h
Temperature: 73°F , 23°C
Dew Point: 59°F , 15°C
Humidity: 61%
Barometer: 30.11 inHg , 1019.6 hPa
Clouds: Partly cloudy
Visibility: 15 miles , 24 km
Cloud details: Few Clouds 2500 ft
Few Clouds 8000 ft
Partly cloudy 25000 ft
2018/07/19 15:00 CYGK 191500Z 19010KT 15SM FEW025 FEW080 SCT250 23/15 A3011 RMK CU2AC1CI2 AC TR SLP196 DENSITY ALT 1200FT